Sarasota, Florida
Current Conditions -  °F | °C
As of 2:53 AM on Monday 24 Nov 2014 (Local Time) from KSRQ Reporting Station
Overcast Overcast  
Wind Chill: 76°   Ceiling: 600
Heat Index: 76°   Visibility: 10mi
Dew Point: 75°   Wind: 15mph
Humidity: 97%   Direction: 180°S
Pressure: 29.9"   Gusts: NA
Location:  27.34°N, 82.54°W
Report Text: KSRQ 240753Z 18013KT 10SM OVC006 24/24 A2990 RMK AO2 SLP124 T02440239
Loading
Personal Weather Stations






























Interactive Weather Map New forecast layout! Learn more

10-Day Weather Forecast

Advertisements
Track Severe Weather on mobile